sensor_id;sensor_type;location;lat;lon;timestamp;pressure;altitude;pressure_sealevel;temperature;humidity
47985;BME280;33753;52.912;-7.342;2022-07-24T00:00:55;99624.06;;;17.01;100.00
47985;BME280;33753;52.912;-7.342;2022-07-24T00:03:25;99618.09;;;16.92;100.00
47985;BME280;33753;52.912;-7.342;2022-07-24T00:05:55;99622.75;;;16.92;100.00
47985;BME280;33753;52.912;-7.342;2022-07-24T00:08:26;99631.28;;;16.96;100.00
47985;BME280;33753;52.912;-7.342;2022-07-24T00:10:55;99627.75;;;16.95;100.00
47985;BME280;33753;52.912;-7.342;2022-07-24T00:13:24;99631.66;;;16.99;100.00
47985;BME280;33753;52.912;-7.342;2022-07-24T00:15:52;99625.59;;;16.97;100.00
47985;BME280;33753;52.912;-7.342;2022-07-24T00:18:21;99616.34;;;16.98;100.00
47985;BME280;33753;52.912;-7.342;2022-07-24T00:20:49;99613.13;;;17.01;100.00
47985;BME280;33753;52.912;-7.342;2022-07-24T00:23:17;99618.34;;;17.03;100.00
47985;BME280;33753;52.912;-7.342;2022-07-24T00:25:46;99614.66;;;16.97;100.00
47985;BME280;33753;52.912;-7.342;2022-07-24T00:28:16;99614.66;;;16.97;100.00
47985;BME280;33753;52.912;-7.342;2022-07-24T00:30:44;99604.34;;;16.99;100.00
47985;BME280;33753;52.912;-7.342;2022-07-24T00:33:13;99613.75;;;17.03;100.00
47985;BME280;33753;52.912;-7.342;2022-07-24T00:35:41;99603.25;;;17.00;100.00
47985;BME280;33753;52.912;-7.342;2022-07-24T00:38:10;99602.22;;;17.01;100.00
47985;BME280;33753;52.912;-7.342;2022-07-24T00:40:38;99604.69;;;16.91;100.00
47985;BME280;33753;52.912;-7.342;2022-07-24T00:43:07;99609.69;;;16.94;100.00
47985;BME280;33753;52.912;-7.342;2022-07-24T00:45:37;99613.34;;;16.88;100.00
47985;BME280;33753;52.912;-7.342;2022-07-24T00:48:07;99613.34;;;16.88;100.00
47985;BME280;33753;52.912;-7.342;2022-07-24T00:50:35;99594.38;;;16.74;100.00
47985;BME280;33753;52.912;-7.342;2022-07-24T00:53:04;99600.13;;;16.85;100.00
47985;BME280;33753;52.912;-7.342;2022-07-24T00:55:32;99602.97;;;16.78;100.00
47985;BME280;33753;52.912;-7.342;2022-07-24T00:58:01;99611.41;;;16.76;100.00
47985;BME280;33753;52.912;-7.342;2022-07-24T01:00:30;99612.44;;;16.75;100.00
47985;BME280;33753;52.912;-7.342;2022-07-24T01:02:59;99616.72;;;16.71;100.00
47985;BME280;33753;52.912;-7.342;2022-07-24T01:05:28;99614.44;;;16.68;100.00
47985;BME280;33753;52.912;-7.342;2022-07-24T01:07:56;99617.03;;;16.63;100.00
47985;BME280;33753;52.912;-7.342;2022-07-24T01:10:26;99622.22;;;16.53;100.00
47985;BME280;33753;52.912;-7.342;2022-07-24T01:12:54;99616.03;;;16.46;100.00
47985;BME280;33753;52.912;-7.342;2022-07-24T01:15:23;99614.69;;;16.36;100.00
47985;BME280;33753;52.912;-7.342;2022-07-24T01:17:51;99606.34;;;16.31;100.00
47985;BME280;33753;52.912;-7.342;2022-07-24T01:20:21;99603.03;;;16.29;100.00
47985;BME280;33753;52.912;-7.342;2022-07-24T01:22:51;99612.75;;;16.25;100.00
47985;BME280;33753;52.912;-7.342;2022-07-24T01:25:19;99611.84;;;16.13;100.00
47985;BME280;33753;52.912;-7.342;2022-07-24T01:27:48;99614.72;;;16.18;100.00
47985;BME280;33753;52.912;-7.342;2022-07-24T01:30:17;99613.97;;;16.11;100.00
47985;BME280;33753;52.912;-7.342;2022-07-24T01:32:45;99604.59;;;16.06;100.00
47985;BME280;33753;52.912;-7.342;2022-07-24T01:35:13;99597.28;;;16.00;100.00
47985;BME280;33753;52.912;-7.342;2022-07-24T01:37:51;99608.31;;;15.94;100.00
47985;BME280;33753;52.912;-7.342;2022-07-24T01:40:20;99611.72;;;15.89;100.00
47985;BME280;33753;52.912;-7.342;2022-07-24T01:42:48;99622.16;;;15.92;100.00
47985;BME280;33753;52.912;-7.342;2022-07-24T01:45:17;99622.63;;;15.89;100.00
47985;BME280;33753;52.912;-7.342;2022-07-24T01:47:45;99608.53;;;15.92;100.00
47985;BME280;33753;52.912;-7.342;2022-07-24T01:50:14;99614.13;;;15.97;100.00
47985;BME280;33753;52.912;-7.342;2022-07-24T01:52:42;99615.34;;;16.01;100.00
47985;BME280;33753;52.912;-7.342;2022-07-24T01:55:12;99617.00;;;16.02;100.00
47985;BME280;33753;52.912;-7.342;2022-07-24T01:57:41;99616.31;;;16.07;100.00
47985;BME280;33753;52.912;-7.342;2022-07-24T02:00:10;99621.78;;;16.07;100.00
47985;BME280;33753;52.912;-7.342;2022-07-24T02:02:40;99620.47;;;16.10;100.00
47985;BME280;33753;52.912;-7.342;2022-07-24T02:05:09;99625.25;;;16.14;100.00
47985;BME280;33753;52.912;-7.342;2022-07-24T02:07:39;99621.31;;;16.10;100.00
47985;BME280;33753;52.912;-7.342;2022-07-24T02:10:08;99616.84;;;16.16;100.00
47985;BME280;33753;52.912;-7.342;2022-07-24T02:12:38;99618.97;;;16.14;100.00
47985;BME280;33753;52.912;-7.342;2022-07-24T02:15:07;99610.41;;;16.10;100.00
47985;BME280;33753;52.912;-7.342;2022-07-24T02:17:36;99611.16;;;16.17;100.00
47985;BME280;33753;52.912;-7.342;2022-07-24T02:20:05;99607.59;;;16.17;100.00
47985;BME280;33753;52.912;-7.342;2022-07-24T02:22:34;99601.53;;;16.15;100.00
47985;BME280;33753;52.912;-7.342;2022-07-24T02:25:03;99597.59;;;16.11;100.00
47985;BME280;33753;52.912;-7.342;2022-07-24T02:27:31;99599.41;;;16.17;100.00
47985;BME280;33753;52.912;-7.342;2022-07-24T02:30:00;99599.63;;;16.15;100.00
47985;BME280;33753;52.912;-7.342;2022-07-24T02:32:29;99593.56;;;16.13;100.00
47985;BME280;33753;52.912;-7.342;2022-07-24T02:34:57;99601.75;;;16.13;100.00
47985;BME280;33753;52.912;-7.342;2022-07-24T02:37:32;99608.06;;;16.14;100.00
47985;BME280;33753;52.912;-7.342;2022-07-24T02:40:03;99601.63;;;16.08;100.00
47985;BME280;33753;52.912;-7.342;2022-07-24T02:42:31;99591.31;;;16.10;100.00
47985;BME280;33753;52.912;-7.342;2022-07-24T02:45:01;99598.28;;;16.06;100.00
47985;BME280;33753;52.912;-7.342;2022-07-24T02:47:29;99597.38;;;16.12;100.00
47985;BME280;33753;52.912;-7.342;2022-07-24T02:49:57;99604.03;;;16.16;100.00
47985;BME280;33753;52.912;-7.342;2022-07-24T02:52:26;99594.88;;;16.11;100.00
47985;BME280;33753;52.912;-7.342;2022-07-24T02:54:54;99593.78;;;16.12;100.00
47985;BME280;33753;52.912;-7.342;2022-07-24T02:57:23;99579.78;;;16.08;100.00
47985;BME280;33753;52.912;-7.342;2022-07-24T02:59:51;99578.97;;;16.08;100.00
47985;BME280;33753;52.912;-7.342;2022-07-24T03:02:21;99572.19;;;16.10;100.00
47985;BME280;33753;52.912;-7.342;2022-07-24T03:04:49;99565.94;;;16.10;100.00
47985;BME280;33753;52.912;-7.342;2022-07-24T03:07:18;99561.75;;;16.07;100.00
47985;BME280;33753;52.912;-7.342;2022-07-24T03:09:47;99564.13;;;16.03;100.00
47985;BME280;33753;52.912;-7.342;2022-07-24T03:12:16;99563.91;;;16.05;100.00
47985;BME280;33753;52.912;-7.342;2022-07-24T03:14:44;99547.38;;;16.00;100.00
47985;BME280;33753;52.912;-7.342;2022-07-24T03:17:12;99555.63;;;15.93;100.00
47985;BME280;33753;52.912;-7.342;2022-07-24T03:19:42;99557.00;;;15.84;100.00
47985;BME280;33753;52.912;-7.342;2022-07-24T03:22:11;99563.53;;;15.83;100.00
47985;BME280;33753;52.912;-7.342;2022-07-24T03:24:39;99562.16;;;15.73;100.00
47985;BME280;33753;52.912;-7.342;2022-07-24T03:27:07;99562.22;;;15.67;100.00
47985;BME280;33753;52.912;-7.342;2022-07-24T03:29:35;99566.09;;;15.59;100.00
47985;BME280;33753;52.912;-7.342;2022-07-24T03:32:04;99565.63;;;15.62;100.00
47985;BME280;33753;52.912;-7.342;2022-07-24T03:34:33;99564.88;;;15.55;100.00
47985;BME280;33753;52.912;-7.342;2022-07-24T03:37:02;99574.09;;;15.54;100.00
47985;BME280;33753;52.912;-7.342;2022-07-24T03:39:31;99569.09;;;15.51;100.00
47985;BME280;33753;52.912;-7.342;2022-07-24T03:41:59;99570.00;;;15.45;100.00
47985;BME280;33753;52.912;-7.342;2022-07-24T03:44:27;99571.66;;;15.46;100.00
47985;BME280;33753;52.912;-7.342;2022-07-24T03:46:56;99574.38;;;15.46;100.00
47985;BME280;33753;52.912;-7.342;2022-07-24T03:49:24;99567.13;;;15.40;100.00
47985;BME280;33753;52.912;-7.342;2022-07-24T03:51:54;99557.28;;;15.38;100.00
47985;BME280;33753;52.912;-7.342;2022-07-24T03:54:24;99572.41;;;15.34;100.00
47985;BME280;33753;52.912;-7.342;2022-07-24T03:56:52;99567.19;;;15.33;100.00
47985;BME280;33753;52.912;-7.342;2022-07-24T03:59:21;99560.91;;;15.32;100.00
47985;BME280;33753;52.912;-7.342;2022-07-24T04:01:49;99557.88;;;15.22;100.00
47985;BME280;33753;52.912;-7.342;2022-07-24T04:04:17;99560.16;;;15.25;100.00
47985;BME280;33753;52.912;-7.342;2022-07-24T04:06:46;99550.53;;;15.23;100.00
47985;BME280;33753;52.912;-7.342;2022-07-24T04:09:14;99550.75;;;15.21;100.00
47985;BME280;33753;52.912;-7.342;2022-07-24T04:11:58;99546.34;;;15.20;100.00
47985;BME280;33753;52.912;-7.342;2022-07-24T04:14:27;99551.34;;;15.23;100.00
47985;BME280;33753;52.912;-7.342;2022-07-24T04:16:55;99545.97;;;15.16;100.00
47985;BME280;33753;52.912;-7.342;2022-07-24T04:19:24;99554.53;;;15.20;100.00
47985;BME280;33753;52.912;-7.342;2022-07-24T04:21:52;99547.78;;;15.23;100.00
47985;BME280;33753;52.912;-7.342;2022-07-24T04:24:21;99540.91;;;15.20;100.00
47985;BME280;33753;52.912;-7.342;2022-07-24T04:26:50;99542.13;;;15.24;100.00
47985;BME280;33753;52.912;-7.342;2022-07-24T04:29:20;99544.63;;;15.26;100.00
47985;BME280;33753;52.912;-7.342;2022-07-24T04:31:48;99539.16;;;15.26;100.00
47985;BME280;33753;52.912;-7.342;2022-07-24T04:34:17;99536.84;;;15.29;100.00
47985;BME280;33753;52.912;-7.342;2022-07-24T04:36:45;99542.53;;;15.28;100.00
47985;BME280;33753;52.912;-7.342;2022-07-24T04:39:13;99545.03;;;15.29;100.00
47985;BME280;33753;52.912;-7.342;2022-07-24T04:41:42;99542.88;;;15.31;100.00
47985;BME280;33753;52.912;-7.342;2022-07-24T04:44:10;99542.88;;;15.31;100.00
47985;BME280;33753;52.912;-7.342;2022-07-24T04:46:40;99553.31;;;15.34;100.00
47985;BME280;33753;52.912;-7.342;2022-07-24T04:49:10;99556.00;;;15.41;100.00
47985;BME280;33753;52.912;-7.342;2022-07-24T04:51:38;99551.75;;;15.45;100.00
47985;BME280;33753;52.912;-7.342;2022-07-24T04:54:06;99551.06;;;15.50;100.00
47985;BME280;33753;52.912;-7.342;2022-07-24T04:56:34;99548.97;;;15.52;100.00
47985;BME280;33753;52.912;-7.342;2022-07-24T04:59:03;99546.03;;;15.53;100.00
47985;BME280;33753;52.912;-7.342;2022-07-24T05:01:32;99546.25;;;15.52;100.00
47985;BME280;33753;52.912;-7.342;2022-07-24T05:04:02;99554.19;;;15.53;100.00
47985;BME280;33753;52.912;-7.342;2022-07-24T05:06:31;99551.25;;;15.55;100.00
47985;BME280;33753;52.912;-7.342;2022-07-24T05:08:59;99547.88;;;15.53;100.00
47985;BME280;33753;52.912;-7.342;2022-07-24T05:11:28;99550.16;;;15.56;100.00
47985;BME280;33753;52.912;-7.342;2022-07-24T05:13:56;99536.16;;;15.52;100.00
47985;BME280;33753;52.912;-7.342;2022-07-24T05:16:25;99543.06;;;15.55;100.00
47985;BME280;33753;52.912;-7.342;2022-07-24T05:18:53;99542.16;;;15.61;100.00
47985;BME280;33753;52.912;-7.342;2022-07-24T05:21:23;99533.38;;;15.59;100.00
47985;BME280;33753;52.912;-7.342;2022-07-24T05:23:53;99534.13;;;15.66;100.00
47985;BME280;33753;52.912;-7.342;2022-07-24T05:26:22;99529.97;;;15.64;100.00
47985;BME280;33753;52.912;-7.342;2022-07-24T05:28:50;99526.88;;;15.79;100.00
47985;BME280;33753;52.912;-7.342;2022-07-24T05:31:19;99517.38;;;16.00;100.00
47985;BME280;33753;52.912;-7.342;2022-07-24T05:33:47;99517.34;;;16.30;100.00
47985;BME280;33753;52.912;-7.342;2022-07-24T05:36:15;99504.97;;;16.58;100.00
47985;BME280;33753;52.912;-7.342;2022-07-24T05:38:45;99516.56;;;16.96;100.00
47985;BME280;33753;52.912;-7.342;2022-07-24T05:41:13;99515.63;;;17.14;100.00
47985;BME280;33753;52.912;-7.342;2022-07-24T05:43:42;99512.84;;;17.49;100.00
47985;BME280;33753;52.912;-7.342;2022-07-24T05:46:10;99506.13;;;17.81;100.00
47985;BME280;33753;52.912;-7.342;2022-07-24T05:48:44;99494.78;;;17.89;100.00
47985;BME280;33753;52.912;-7.342;2022-07-24T05:51:13;99505.47;;;18.02;100.00
47985;BME280;33753;52.912;-7.342;2022-07-24T05:53:41;99496.84;;;18.10;100.00
47985;BME280;33753;52.912;-7.342;2022-07-24T05:56:11;99490.41;;;18.17;100.00
47985;BME280;33753;52.912;-7.342;2022-07-24T05:58:40;99480.41;;;18.39;100.00
47985;BME280;33753;52.912;-7.342;2022-07-24T06:01:08;99483.88;;;18.52;100.00
47985;BME280;33753;52.912;-7.342;2022-07-24T06:03:41;99478.16;;;18.70;100.00
47985;BME280;33753;52.912;-7.342;2022-07-24T06:06:09;99460.94;;;18.87;100.00
47985;BME280;33753;52.912;-7.342;2022-07-24T06:08:38;99465.53;;;19.03;100.00
47985;BME280;33753;52.912;-7.342;2022-07-24T06:11:06;99466.41;;;19.26;100.00
47985;BME280;33753;52.912;-7.342;2022-07-24T06:13:37;99463.16;;;19.29;100.00
47985;BME280;33753;52.912;-7.342;2022-07-24T06:16:06;99461.50;;;19.72;100.00
47985;BME280;33753;52.912;-7.342;2022-07-24T06:18:35;99457.47;;;20.02;100.00
47985;BME280;33753;52.912;-7.342;2022-07-24T06:21:04;99470.53;;;20.17;100.00
47985;BME280;33753;52.912;-7.342;2022-07-24T06:23:33;99468.09;;;20.20;100.00
47985;BME280;33753;52.912;-7.342;2022-07-24T06:26:01;99469.91;;;20.10;100.00
47985;BME280;33753;52.912;-7.342;2022-07-24T06:28:29;99467.94;;;20.05;100.00
47985;BME280;33753;52.912;-7.342;2022-07-24T06:30:59;99464.31;;;19.77;100.00
47985;BME280;33753;52.912;-7.342;2022-07-24T06:33:29;99463.22;;;19.56;100.00
47985;BME280;33753;52.912;-7.342;2022-07-24T06:35:58;99460.25;;;19.36;100.00
47985;BME280;33753;52.912;-7.342;2022-07-24T06:38:26;99465.84;;;19.24;100.00
47985;BME280;33753;52.912;-7.342;2022-07-24T06:40:55;99463.03;;;19.19;100.00
47985;BME280;33753;52.912;-7.342;2022-07-24T06:43:23;99462.31;;;19.06;100.00
47985;BME280;33753;52.912;-7.342;2022-07-24T06:45:51;99466.06;;;19.00;100.00
47985;BME280;33753;52.912;-7.342;2022-07-24T06:48:22;99460.69;;;18.88;100.00
47985;BME280;33753;52.912;-7.342;2022-07-24T06:50:50;99458.75;;;18.89;100.00
47985;BME280;33753;52.912;-7.342;2022-07-24T06:53:18;99459.00;;;18.87;100.00
47985;BME280;33753;52.912;-7.342;2022-07-24T06:58:20;99465.63;;;18.74;100.00
47985;BME280;33753;52.912;-7.342;2022-07-24T07:00:48;99457.81;;;18.66;100.00
47985;BME280;33753;52.912;-7.342;2022-07-24T07:03:17;99449.44;;;18.56;100.00
47985;BME280;33753;52.912;-7.342;2022-07-24T07:05:47;99460.25;;;18.45;100.00
47985;BME280;33753;52.912;-7.342;2022-07-24T07:08:15;99452.19;;;18.39;100.00
47985;BME280;33753;52.912;-7.342;2022-07-24T07:10:44;99454.50;;;18.30;100.00
47985;BME280;33753;52.912;-7.342;2022-07-24T07:13:13;99455.25;;;18.25;100.00
47985;BME280;33753;52.912;-7.342;2022-07-24T07:15:41;99449.75;;;18.08;100.00
47985;BME280;33753;52.912;-7.342;2022-07-24T07:18:09;99453.41;;;18.14;100.00
47985;BME280;33753;52.912;-7.342;2022-07-24T07:20:37;99450.09;;;18.12;100.00
47985;BME280;33753;52.912;-7.342;2022-07-24T07:23:07;99444.38;;;18.13;100.00
47985;BME280;33753;52.912;-7.342;2022-07-24T07:25:35;99441.16;;;18.17;100.00
47985;BME280;33753;52.912;-7.342;2022-07-24T07:28:04;99439.47;;;18.16;100.00
47985;BME280;33753;52.912;-7.342;2022-07-24T07:30:33;99445.63;;;18.23;100.00
47985;BME280;33753;52.912;-7.342;2022-07-24T07:33:01;99437.81;;;18.14;100.00
47985;BME280;33753;52.912;-7.342;2022-07-24T07:35:29;99439.97;;;18.12;100.00
47985;BME280;33753;52.912;-7.342;2022-07-24T07:37:57;99440.53;;;18.14;100.00
47985;BME280;33753;52.912;-7.342;2022-07-24T07:40:27;99424.22;;;18.20;100.00
47985;BME280;33753;52.912;-7.342;2022-07-24T07:42:55;99433.50;;;18.19;100.00
47985;BME280;33753;52.912;-7.342;2022-07-24T07:45:24;99436.16;;;18.13;100.00
47985;BME280;33753;52.912;-7.342;2022-07-24T07:47:57;99425.38;;;18.07;100.00
47985;BME280;33753;52.912;-7.342;2022-07-24T07:50:26;99417.44;;;18.22;100.00
47985;BME280;33753;52.912;-7.342;2022-07-24T07:52:54;99416.84;;;18.20;100.00
47985;BME280;33753;52.912;-7.342;2022-07-24T07:55:22;99415.44;;;18.35;100.00
47985;BME280;33753;52.912;-7.342;2022-07-24T07:57:52;99410.81;;;18.35;100.00
47985;BME280;33753;52.912;-7.342;2022-07-24T08:00:32;99409.47;;;18.38;100.00
47985;BME280;33753;52.912;-7.342;2022-07-24T08:03:01;99400.66;;;18.53;100.00
47985;BME280;33753;52.912;-7.342;2022-07-24T08:05:30;99399.09;;;18.57;100.00
47985;BME280;33753;52.912;-7.342;2022-07-24T08:07:58;99399.22;;;18.67;100.00
47985;BME280;33753;52.912;-7.342;2022-07-24T08:10:27;99391.63;;;18.69;100.00
47985;BME280;33753;52.912;-7.342;2022-07-24T08:12:56;99382.88;;;18.72;100.00
47985;BME280;33753;52.912;-7.342;2022-07-24T08:15:24;99374.66;;;18.72;100.00
47985;BME280;33753;52.912;-7.342;2022-07-24T08:17:53;99368.78;;;19.03;100.00
47985;BME280;33753;52.912;-7.342;2022-07-24T08:22:53;99356.06;;;19.13;100.00
47985;BME280;33753;52.912;-7.342;2022-07-24T08:25:24;99346.28;;;19.23;100.00
47985;BME280;33753;52.912;-7.342;2022-07-24T08:27:52;99344.28;;;19.40;100.00
47985;BME280;33753;52.912;-7.342;2022-07-24T08:30:22;99340.31;;;19.53;100.00
47985;BME280;33753;52.912;-7.342;2022-07-24T08:32:52;99336.69;;;20.02;100.00
47985;BME280;33753;52.912;-7.342;2022-07-24T08:35:21;99339.59;;;20.23;100.00
47985;BME280;33753;52.912;-7.342;2022-07-24T08:37:58;99334.75;;;20.35;100.00
47985;BME280;33753;52.912;-7.342;2022-07-24T08:40:27;99327.72;;;20.54;100.00
47985;BME280;33753;52.912;-7.342;2022-07-24T08:43:00;99324.38;;;20.85;100.00
47985;BME280;33753;52.912;-7.342;2022-07-24T08:45:29;99331.44;;;21.44;100.00
47985;BME280;33753;52.912;-7.342;2022-07-24T08:48:01;99313.34;;;21.95;100.00
47985;BME280;33753;52.912;-7.342;2022-07-24T08:50:30;99318.88;;;22.36;100.00
47985;BME280;33753;52.912;-7.342;2022-07-24T08:52:59;99308.09;;;22.50;100.00
47985;BME280;33753;52.912;-7.342;2022-07-24T08:55:28;99298.81;;;23.06;100.00
47985;BME280;33753;52.912;-7.342;2022-07-24T08:57:58;99291.94;;;23.53;100.00
47985;BME280;33753;52.912;-7.342;2022-07-24T09:00:26;99276.16;;;23.98;100.00
47985;BME280;33753;52.912;-7.342;2022-07-24T09:02:57;99271.19;;;24.54;100.00
47985;BME280;33753;52.912;-7.342;2022-07-24T09:05:26;99262.41;;;24.95;100.00
47985;BME280;33753;52.912;-7.342;2022-07-24T09:08:05;99244.13;;;24.99;100.00
47985;BME280;33753;52.912;-7.342;2022-07-24T09:10:33;99251.38;;;25.33;100.00
47985;BME280;33753;52.912;-7.342;2022-07-24T09:13:11;99231.88;;;25.44;100.00
47985;BME280;33753;52.912;-7.342;2022-07-24T09:15:44;99220.63;;;25.54;100.00
47985;BME280;33753;52.912;-7.342;2022-07-24T09:18:25;99224.88;;;25.98;100.00
47985;BME280;33753;52.912;-7.342;2022-07-24T09:20:56;99217.50;;;26.08;100.00
47985;BME280;33753;52.912;-7.342;2022-07-24T09:23:25;99215.09;;;25.87;100.00
47985;BME280;33753;52.912;-7.342;2022-07-24T09:25:53;99221.84;;;26.42;100.00
47985;BME280;33753;52.912;-7.342;2022-07-24T09:28:22;99234.84;;;27.11;100.00
47985;BME280;33753;52.912;-7.342;2022-07-24T09:30:52;99226.50;;;27.61;100.00
47985;BME280;33753;52.912;-7.342;2022-07-24T09:33:20;99214.53;;;27.83;100.00
47985;BME280;33753;52.912;-7.342;2022-07-24T09:35:52;99230.22;;;28.42;100.00
47985;BME280;33753;52.912;-7.342;2022-07-24T09:38:24;99217.16;;;28.42;100.00
47985;BME280;33753;52.912;-7.342;2022-07-24T09:40:54;99211.91;;;28.41;100.00
47985;BME280;33753;52.912;-7.342;2022-07-24T09:43:23;99207.44;;;27.68;100.00
47985;BME280;33753;52.912;-7.342;2022-07-24T09:46:01;99201.63;;;27.56;100.00
47985;BME280;33753;52.912;-7.342;2022-07-24T09:48:30;99210.66;;;27.25;100.00
47985;BME280;33753;52.912;-7.342;2022-07-24T09:51:03;99211.88;;;27.33;100.00
47985;BME280;33753;52.912;-7.342;2022-07-24T09:53:36;99217.97;;;26.70;100.00
47985;BME280;33753;52.912;-7.342;2022-07-24T09:56:09;99210.66;;;26.05;100.00
47985;BME280;33753;52.912;-7.342;2022-07-24T09:58:38;99207.91;;;25.53;100.00
47985;BME280;33753;52.912;-7.342;2022-07-24T10:01:07;99206.53;;;25.37;100.00
47985;BME280;33753;52.912;-7.342;2022-07-24T10:03:38;99209.28;;;25.37;100.00
47985;BME280;33753;52.912;-7.342;2022-07-24T10:06:10;99193.47;;;24.99;100.00
47985;BME280;33753;52.912;-7.342;2022-07-24T10:08:41;99190.03;;;25.26;100.00
47985;BME280;33753;52.912;-7.342;2022-07-24T10:11:10;99198.84;;;25.47;100.00
47985;BME280;33753;52.912;-7.342;2022-07-24T10:13:38;99190.31;;;26.10;100.00
47985;BME280;33753;52.912;-7.342;2022-07-24T10:18:50;99180.78;;;26.71;100.00
47985;BME280;33753;52.912;-7.342;2022-07-24T10:21:21;99158.63;;;26.44;100.00
47985;BME280;33753;52.912;-7.342;2022-07-24T10:26:34;99146.03;;;26.88;100.00
47985;BME280;33753;52.912;-7.342;2022-07-24T10:29:05;99156.31;;;27.10;100.00
47985;BME280;33753;52.912;-7.342;2022-07-24T10:31:37;99147.72;;;27.34;100.00
47985;BME280;33753;52.912;-7.342;2022-07-24T10:34:09;99133.72;;;27.39;100.00
47985;BME280;33753;52.912;-7.342;2022-07-24T10:36:41;99138.06;;;27.86;100.00
47985;BME280;33753;52.912;-7.342;2022-07-24T10:39:17;99146.06;;;27.87;100.00
47985;BME280;33753;52.912;-7.342;2022-07-24T10:41:59;99140.56;;;27.42;100.00
47985;BME280;33753;52.912;-7.342;2022-07-24T10:44:28;99156.00;;;27.12;100.00
47985;BME280;33753;52.912;-7.342;2022-07-24T10:47:05;99152.81;;;26.82;100.00
47985;BME280;33753;52.912;-7.342;2022-07-24T10:49:44;99151.38;;;26.84;100.00
47985;BME280;33753;52.912;-7.342;2022-07-24T10:52:22;99160.00;;;26.83;100.00
47985;BME280;33753;52.912;-7.342;2022-07-24T10:57:45;99148.34;;;26.30;100.00
47985;BME280;33753;52.912;-7.342;2022-07-24T11:00:20;99153.47;;;26.51;100.00
47985;BME280;33753;52.912;-7.342;2022-07-24T11:02:55;99148.66;;;26.43;100.00
47985;BME280;33753;52.912;-7.342;2022-07-24T11:05:24;99159.81;;;26.65;100.00
47985;BME280;33753;52.912;-7.342;2022-07-24T11:10:46;99145.81;;;25.73;100.00
47985;BME280;33753;52.912;-7.342;2022-07-24T11:13:38;99141.84;;;25.46;100.00
47985;BME280;33753;52.912;-7.342;2022-07-24T11:21:44;99118.84;;;25.13;100.00
47985;BME280;33753;52.912;-7.342;2022-07-24T11:24:14;99122.22;;;25.10;100.00
47985;BME280;33753;52.912;-7.342;2022-07-24T11:26:48;99134.63;;;25.31;100.00
47985;BME280;33753;52.912;-7.342;2022-07-24T11:29:17;99117.81;;;25.09;100.00
47985;BME280;33753;52.912;-7.342;2022-07-24T11:31:46;99122.47;;;24.75;100.00
47985;BME280;33753;52.912;-7.342;2022-07-24T11:34:15;99124.13;;;24.52;100.00
47985;BME280;33753;52.912;-7.342;2022-07-24T11:36:44;99116.09;;;24.31;100.00
47985;BME280;33753;52.912;-7.342;2022-07-24T11:39:14;99116.75;;;24.23;100.00
47985;BME280;33753;52.912;-7.342;2022-07-24T11:41:44;99117.22;;;24.06;100.00
47985;BME280;33753;52.912;-7.342;2022-07-24T11:44:20;99114.97;;;23.84;100.00
47985;BME280;33753;52.912;-7.342;2022-07-24T11:46:50;99121.53;;;23.64;100.00
47985;BME280;33753;52.912;-7.342;2022-07-24T11:49:18;99119.66;;;23.59;100.00
47985;BME280;33753;52.912;-7.342;2022-07-24T11:51:47;99114.63;;;23.67;100.00
47985;BME280;33753;52.912;-7.342;2022-07-24T11:54:19;99120.09;;;23.42;100.00
47985;BME280;33753;52.912;-7.342;2022-07-24T11:56:48;99111.13;;;23.56;100.00
47985;BME280;33753;52.912;-7.342;2022-07-24T11:59:25;99119.97;;;23.82;100.00
47985;BME280;33753;52.912;-7.342;2022-07-24T12:01:54;99114.69;;;23.91;100.00
47985;BME280;33753;52.912;-7.342;2022-07-24T12:04:23;99113.41;;;23.78;100.00
47985;BME280;33753;52.912;-7.342;2022-07-24T12:06:51;99113.31;;;23.59;100.00
47985;BME280;33753;52.912;-7.342;2022-07-24T12:09:20;99106.34;;;23.37;100.00
47985;BME280;33753;52.912;-7.342;2022-07-24T12:11:48;99109.25;;;23.51;100.00
47985;BME280;33753;52.912;-7.342;2022-07-24T12:14:20;99112.38;;;23.69;100.00
47985;BME280;33753;52.912;-7.342;2022-07-24T12:16:54;99109.53;;;24.03;100.00
47985;BME280;33753;52.912;-7.342;2022-07-24T12:19:23;99093.16;;;23.88;100.00
47985;BME280;33753;52.912;-7.342;2022-07-24T12:21:52;99097.97;;;23.72;100.00
47985;BME280;33753;52.912;-7.342;2022-07-24T12:24:20;99078.16;;;23.40;100.00
47985;BME280;33753;52.912;-7.342;2022-07-24T12:26:55;99091.09;;;23.45;100.00
47985;BME280;33753;52.912;-7.342;2022-07-24T12:29:24;99081.50;;;23.67;100.00
47985;BME280;33753;52.912;-7.342;2022-07-24T12:31:54;99076.44;;;23.74;100.00
47985;BME280;33753;52.912;-7.342;2022-07-24T12:34:40;99063.16;;;23.76;100.00
47985;BME280;33753;52.912;-7.342;2022-07-24T12:37:29;99072.59;;;23.45;100.00
47985;BME280;33753;52.912;-7.342;2022-07-24T12:39:57;99062.28;;;22.92;100.00
47985;BME280;33753;52.912;-7.342;2022-07-24T12:42:29;99075.38;;;22.76;100.00
47985;BME280;33753;52.912;-7.342;2022-07-24T12:45:05;99077.75;;;22.88;100.00
47985;BME280;33753;52.912;-7.342;2022-07-24T12:47:35;99068.78;;;22.72;100.00
47985;BME280;33753;52.912;-7.342;2022-07-24T12:50:11;99071.88;;;22.60;100.00
47985;BME280;33753;52.912;-7.342;2022-07-24T12:52:39;99072.31;;;22.78;100.00
47985;BME280;33753;52.912;-7.342;2022-07-24T12:55:18;99057.97;;;22.76;100.00
47985;BME280;33753;52.912;-7.342;2022-07-24T12:57:46;99056.91;;;22.72;100.00
47985;BME280;33753;52.912;-7.342;2022-07-24T13:00:15;99065.81;;;22.64;100.00
47985;BME280;33753;52.912;-7.342;2022-07-24T13:02:46;99048.00;;;22.40;100.00
47985;BME280;33753;52.912;-7.342;2022-07-24T13:05:15;99057.75;;;22.22;100.00
47985;BME280;33753;52.912;-7.342;2022-07-24T13:07:50;99056.16;;;22.06;100.00
47985;BME280;33753;52.912;-7.342;2022-07-24T13:10:19;99047.41;;;21.94;100.00
47985;BME280;33753;52.912;-7.342;2022-07-24T13:12:47;99042.44;;;21.90;100.00
47985;BME280;33753;52.912;-7.342;2022-07-24T13:15:15;99035.09;;;21.81;100.00